Three Hills, Canada
Current Conditions -  °F | °C
As of 6:00 PM on Sunday 23 Nov 2014 (Local Time) from CYQF Reporting Station
Broken Clouds Broken Clouds  
Wind Chill: 16°   Ceiling: 21000
Heat Index: 23°   Visibility: 15mi
Dew Point: 19°   Wind: 6mph
Humidity: 86%   Direction: 330°NNW
Pressure: 29.68"   Gusts: NA
Location:  51.7°N, 113.26°W
Report Text: CYQF 240100Z 33005KT 15SM FEW080 BKN210 M05/M07 A2968 RMK AC2CC5 SLP108
Loading
Personal Weather Stations






























Interactive Weather Map New forecast layout! Learn more

10-Day Weather Forecast

Advertisements
Track Severe Weather on mobile